createdAt,value
2018-09-15T00:00:40.757Z,14.72
2018-09-15T00:03:10.201Z,14.80
2018-09-15T00:05:39.595Z,14.88
2018-09-15T00:08:08.983Z,14.93
2018-09-15T00:10:38.400Z,14.99
2018-09-15T00:13:07.906Z,15.09
2018-09-15T00:15:37.308Z,15.15
2018-09-15T00:18:09.782Z,15.14
2018-09-15T00:20:39.287Z,15.11
2018-09-15T00:23:09.555Z,15.13
2018-09-15T00:25:39.216Z,15.16
2018-09-15T00:28:09.128Z,15.22
2018-09-15T00:30:38.531Z,15.24
2018-09-15T00:33:07.834Z,15.31
2018-09-15T00:35:37.234Z,15.24
2018-09-15T00:38:06.637Z,15.29
2018-09-15T00:40:36.037Z,15.27
2018-09-15T00:43:05.644Z,15.25
2018-09-15T00:45:35.046Z,15.24
2018-09-15T00:48:04.554Z,15.30
2018-09-15T00:50:33.849Z,15.30
2018-09-15T00:53:03.250Z,15.27
2018-09-15T00:55:32.551Z,15.18
2018-09-15T00:58:01.852Z,15.30
2018-09-15T01:00:31.151Z,15.28
2018-09-15T01:03:00.755Z,15.24
2018-09-15T01:05:30.158Z,15.33
2018-09-15T01:07:59.665Z,15.42
2018-09-15T01:10:29.070Z,15.44
2018-09-15T01:12:58.468Z,15.40
2018-09-15T01:15:27.869Z,15.39
2018-09-15T01:17:57.270Z,15.36
2018-09-15T01:20:26.570Z,15.42
2018-09-15T01:22:55.971Z,15.48
2018-09-15T01:25:25.374Z,15.52
2018-09-15T01:27:54.776Z,15.57
2018-09-15T01:30:24.275Z,15.54
2018-09-15T01:32:53.576Z,15.56
2018-09-15T01:35:22.875Z,15.41
2018-09-15T01:37:52.384Z,15.47
2018-09-15T01:40:21.783Z,15.54
2018-09-15T01:42:51.387Z,15.57
2018-09-15T01:45:20.696Z,15.56
2018-09-15T01:47:50.194Z,15.61
2018-09-15T01:50:19.600Z,15.57
2018-09-15T01:52:48.999Z,15.65
2018-09-15T01:55:18.400Z,15.64
2018-09-15T01:57:47.813Z,15.58
2018-09-15T02:00:17.309Z,15.61
2018-09-15T02:02:46.711Z,15.58
2018-09-15T02:05:16.114Z,15.57
2018-09-15T02:07:45.660Z,15.56
2018-09-15T02:10:15.026Z,15.45
2018-09-15T02:12:44.521Z,15.28
2018-09-15T02:15:13.925Z,15.21
2018-09-15T02:17:43.427Z,15.15
2018-09-15T02:20:12.829Z,15.19
2018-09-15T02:22:42.318Z,15.03
2018-09-15T02:25:11.527Z,15.01
2018-09-15T02:27:40.831Z,14.94
2018-09-15T02:30:10.392Z,14.92
2018-09-15T02:32:39.841Z,14.81
2018-09-15T02:35:09.448Z,14.69
2018-09-15T02:37:38.850Z,14.62
2018-09-15T02:40:08.252Z,14.49
2018-09-15T02:42:37.756Z,14.45
2018-09-15T02:45:07.260Z,14.38
2018-09-15T02:47:36.771Z,14.36
2018-09-15T02:50:06.892Z,14.31
2018-09-15T02:52:36.430Z,14.27
2018-09-15T02:55:06.194Z,14.24
2018-09-15T02:57:35.918Z,14.21
2018-09-15T03:00:05.357Z,14.16
2018-09-15T03:02:34.709Z,14.09
2018-09-15T03:05:04.216Z,13.99
2018-09-15T03:07:33.618Z,13.96
2018-09-15T03:10:03.123Z,13.96
2018-09-15T03:12:32.713Z,13.97
2018-09-15T03:15:02.134Z,13.94
2018-09-15T03:17:31.535Z,13.89
2018-09-15T03:20:01.035Z,13.84
2018-09-15T03:22:30.439Z,13.83
2018-09-15T03:24:59.738Z,13.86
2018-09-15T03:27:29.141Z,13.82
2018-09-15T03:29:58.544Z,13.80
2018-09-15T03:32:28.148Z,13.84
2018-09-15T03:34:57.553Z,13.85
2018-09-15T03:37:26.970Z,13.86
2018-09-15T03:39:56.457Z,13.81
2018-09-15T03:42:25.859Z,13.85
2018-09-15T03:44:55.261Z,13.79
2018-09-15T03:47:24.663Z,13.76
2018-09-15T03:49:54.171Z,13.73
2018-09-15T03:52:23.605Z,13.70
2018-09-15T03:54:53.073Z,13.73
2018-09-15T03:57:22.805Z,13.69
2018-09-15T03:59:52.318Z,13.51
2018-09-15T04:02:21.689Z,13.45
2018-09-15T04:04:51.092Z,13.54
2018-09-15T04:07:20.493Z,13.42
2018-09-15T04:09:49.995Z,13.45
2018-09-15T04:12:19.402Z,13.48
2018-09-15T04:14:48.796Z,13.55
2018-09-15T04:17:18.201Z,13.48
2018-09-15T04:19:47.602Z,13.45
2018-09-15T04:22:16.906Z,13.34
2018-09-15T04:24:46.305Z,13.42
2018-09-15T04:27:15.703Z,13.47
2018-09-15T04:29:45.110Z,13.47
2018-09-15T04:32:14.447Z,13.36
2018-09-15T04:34:43.709Z,13.24
2018-09-15T04:37:13.213Z,13.18
2018-09-15T04:39:42.653Z,13.09
2018-09-15T04:42:12.119Z,13.05
2018-09-15T04:44:41.623Z,13.04
2018-09-15T04:47:11.029Z,12.93
2018-09-15T04:49:40.511Z,12.92
2018-09-15T04:52:09.931Z,12.82
2018-09-15T04:54:39.287Z,12.77
2018-09-15T04:57:08.735Z,12.73
2018-09-15T04:59:38.137Z,12.68
2018-09-15T05:02:07.644Z,12.66
2018-09-15T05:04:37.044Z,12.59
2018-09-15T05:07:06.649Z,12.53
2018-09-15T05:09:36.154Z,12.53
2018-09-15T05:12:05.659Z,12.45
2018-09-15T05:14:34.988Z,12.47
2018-09-15T05:17:04.360Z,12.39
2018-09-15T05:19:33.964Z,12.22
2018-09-15T05:22:03.369Z,12.38
2018-09-15T05:24:32.690Z,12.35
2018-09-15T05:27:02.172Z,12.39
2018-09-15T05:29:31.574Z,12.37
2018-09-15T05:32:00.977Z,12.33
2018-09-15T05:34:30.581Z,12.48
2018-09-15T05:36:59.985Z,12.45
2018-09-15T05:39:29.390Z,12.44
2018-09-15T05:41:58.787Z,12.31
2018-09-15T05:44:28.192Z,12.56
2018-09-15T05:46:57.590Z,12.81
2018-09-15T05:49:26.992Z,13.76
2018-09-15T05:51:56.600Z,14.43
2018-09-15T05:54:26.002Z,14.51
2018-09-15T05:56:55.405Z,14.09
2018-09-15T05:59:24.809Z,13.81
2018-09-15T06:01:54.209Z,13.77
2018-09-15T06:04:23.610Z,13.78
2018-09-15T06:06:52.914Z,13.85
2018-09-15T06:09:22.211Z,13.88
2018-09-15T06:11:51.611Z,14.40
2018-09-15T06:14:21.117Z,14.55
2018-09-15T06:16:50.484Z,14.54
2018-09-15T06:19:19.815Z,14.85
2018-09-15T06:21:49.217Z,15.13
2018-09-15T06:24:18.620Z,15.85
2018-09-15T06:26:47.915Z,17.37
2018-09-15T06:29:17.319Z,17.78
2018-09-15T06:31:46.621Z,18.37
2018-09-15T06:34:16.022Z,18.56
2018-09-15T06:36:45.428Z,18.08
2018-09-15T06:39:14.862Z,17.22
2018-09-15T06:41:44.333Z,16.73
2018-09-15T06:44:13.735Z,16.13
2018-09-15T06:46:43.133Z,16.05
2018-09-15T06:49:12.536Z,16.07
2018-09-15T06:51:41.944Z,15.96
2018-09-15T06:54:11.347Z,16.11
2018-09-15T06:56:40.749Z,15.95
2018-09-15T06:59:10.150Z,16.00
2018-09-15T07:01:40.774Z,16.02
2018-09-15T07:04:12.122Z,15.81
2018-09-15T07:06:41.991Z,15.93
2018-09-15T07:09:12.826Z,15.98
2018-09-15T07:11:42.376Z,15.66
2018-09-15T07:14:12.088Z,15.73
2018-09-15T07:16:41.589Z,15.85
2018-09-15T07:19:11.093Z,15.63
2018-09-15T07:21:40.495Z,15.89
2018-09-15T07:24:09.896Z,16.11
2018-09-15T07:26:39.300Z,16.10
2018-09-15T07:29:08.805Z,16.44
2018-09-15T07:31:38.209Z,16.02
2018-09-15T07:34:07.754Z,16.10
2018-09-15T07:36:37.112Z,16.34
2018-09-15T07:39:08.970Z,16.47
2018-09-15T07:41:38.438Z,16.36
2018-09-15T07:44:07.985Z,16.36
2018-09-15T07:46:37.484Z,16.50
2018-09-15T07:49:06.988Z,16.55
2018-09-15T07:51:36.433Z,16.82
2018-09-15T07:54:05.798Z,16.92
2018-09-15T07:56:35.098Z,17.05
2018-09-15T07:59:04.492Z,17.19
2018-09-15T08:01:33.895Z,17.09
2018-09-15T08:04:03.397Z,17.26
2018-09-15T08:06:32.805Z,17.21
2018-09-15T08:09:02.201Z,17.24
2018-09-15T08:11:31.607Z,17.26
2018-09-15T08:14:01.009Z,17.36
2018-09-15T08:16:30.234Z,17.56
2018-09-15T08:18:59.606Z,17.47
2018-09-15T08:21:28.904Z,17.62
2018-09-15T08:23:58.309Z,17.82
2018-09-15T08:26:27.715Z,18.04
2018-09-15T08:28:57.213Z,18.31
2018-09-15T08:31:26.511Z,18.44
2018-09-15T08:33:56.239Z,18.45
2018-09-15T08:36:25.914Z,18.49
2018-09-15T08:38:55.333Z,19.05
2018-09-15T08:41:24.663Z,19.57
2018-09-15T08:43:54.138Z,19.94
2018-09-15T08:46:23.538Z,20.01
2018-09-15T08:48:52.899Z,20.00
2018-09-15T08:51:22.238Z,20.18
2018-09-15T08:53:51.643Z,20.43
2018-09-15T08:56:21.147Z,20.58
2018-09-15T08:58:50.484Z,20.79
2018-09-15T09:01:19.949Z,20.86
2018-09-15T09:03:49.353Z,21.00
2018-09-15T09:06:18.680Z,21.09
2018-09-15T09:08:48.052Z,21.17
2018-09-15T09:11:17.555Z,21.22
2018-09-15T09:13:47.063Z,21.36
2018-09-15T09:16:16.565Z,21.38
2018-09-15T09:18:46.584Z,21.58
2018-09-15T09:21:15.979Z,20.90
2018-09-15T09:23:45.591Z,21.28
2018-09-15T09:26:15.060Z,21.68
2018-09-15T09:28:44.393Z,21.95
2018-09-15T09:31:13.795Z,21.84
2018-09-15T09:33:43.196Z,21.88
2018-09-15T09:36:12.504Z,22.29
2018-09-15T09:38:42.002Z,22.21
2018-09-15T09:41:11.305Z,22.44
2018-09-15T09:43:40.710Z,22.65
2018-09-15T09:46:10.001Z,22.75
2018-09-15T09:48:39.402Z,22.30
2018-09-15T09:51:08.805Z,22.63
2018-09-15T09:53:38.208Z,22.21
2018-09-15T09:56:07.610Z,21.93
2018-09-15T09:58:36.912Z,22.77
2018-09-15T10:01:11.592Z,23.05
2018-09-15T10:03:41.039Z,23.37
2018-09-15T10:06:10.444Z,23.39
2018-09-15T10:08:39.883Z,23.46
2018-09-15T10:11:09.346Z,23.81
2018-09-15T10:13:38.797Z,23.60
2018-09-15T10:16:08.305Z,23.53
2018-09-15T10:18:37.755Z,23.29
2018-09-15T10:21:07.158Z,23.63
2018-09-15T10:23:36.771Z,23.53
2018-09-15T10:26:06.162Z,23.28
2018-09-15T10:28:35.570Z,22.80
2018-09-15T10:31:04.970Z,23.15
2018-09-15T10:33:34.371Z,23.50
2018-09-15T10:36:04.597Z,23.77
2018-09-15T10:38:34.245Z,24.05
2018-09-15T10:41:03.706Z,24.44
2018-09-15T10:43:33.115Z,24.21
2018-09-15T10:46:02.639Z,24.40
2018-09-15T10:48:32.026Z,24.49
2018-09-15T10:51:01.415Z,24.10
2018-09-15T10:53:30.740Z,24.00
2018-09-15T10:56:00.116Z,24.19
2018-09-15T10:58:29.518Z,24.69
2018-09-15T11:00:59.023Z,24.68
2018-09-15T11:03:28.527Z,24.42
2018-09-15T11:05:57.982Z,24.64
2018-09-15T11:08:27.329Z,24.90
2018-09-15T11:10:56.634Z,24.82
2018-09-15T11:13:26.245Z,24.61
2018-09-15T11:15:55.535Z,24.38
2018-09-15T11:18:25.040Z,24.33
2018-09-15T11:20:54.439Z,24.03
2018-09-15T11:23:23.846Z,23.39
2018-09-15T11:25:53.246Z,23.69
2018-09-15T11:28:22.647Z,24.07
2018-09-15T11:30:52.154Z,23.77
2018-09-15T11:33:21.551Z,23.96
2018-09-15T11:35:50.853Z,24.41
2018-09-15T11:38:20.363Z,24.10
2018-09-15T11:40:49.765Z,24.41
2018-09-15T11:43:19.166Z,24.20
2018-09-15T11:45:48.563Z,24.34
2018-09-15T11:48:17.863Z,24.67
2018-09-15T11:50:47.265Z,25.17
2018-09-15T11:53:16.667Z,25.03
2018-09-15T11:55:46.068Z,24.84
2018-09-15T11:58:15.473Z,25.18
2018-09-15T12:00:49.685Z,25.70
2018-09-15T12:03:19.091Z,25.32
2018-09-15T12:05:48.492Z,25.06
2018-09-15T12:08:18.096Z,25.12
2018-09-15T12:10:47.602Z,24.74
2018-09-15T12:13:17.018Z,24.39
2018-09-15T12:15:46.574Z,23.63
2018-09-15T12:18:16.013Z,23.40
2018-09-15T12:20:45.415Z,22.92
2018-09-15T12:23:14.920Z,22.98
2018-09-15T12:25:44.321Z,23.01
2018-09-15T12:28:13.722Z,23.02
2018-09-15T12:30:43.227Z,22.92
2018-09-15T12:33:12.629Z,22.77
2018-09-15T12:35:42.194Z,22.78
2018-09-15T12:38:11.844Z,22.77
2018-09-15T12:40:41.200Z,23.02
2018-09-15T12:43:10.544Z,22.89
2018-09-15T12:45:39.945Z,22.63
2018-09-15T12:48:09.350Z,22.78
2018-09-15T12:50:38.748Z,22.88
2018-09-15T12:53:08.155Z,22.82
2018-09-15T12:55:37.556Z,22.90
2018-09-15T12:58:06.787Z,23.31
2018-09-15T13:00:36.154Z,23.07
2018-09-15T13:03:05.451Z,23.12
2018-09-15T13:05:34.853Z,23.10
2018-09-15T13:08:04.369Z,22.95
2018-09-15T13:10:33.760Z,22.77
2018-09-15T13:13:03.163Z,23.05
2018-09-15T13:15:32.635Z,23.24
2018-09-15T13:18:01.870Z,23.33
2018-09-15T13:20:31.270Z,23.41
2018-09-15T13:23:00.666Z,23.14
2018-09-15T13:25:30.077Z,23.53
2018-09-15T13:27:59.471Z,23.51
2018-09-15T13:30:28.834Z,23.65
2018-09-15T13:32:58.174Z,23.70
2018-09-15T13:35:27.579Z,23.60
2018-09-15T13:37:56.836Z,23.62
2018-09-15T13:40:26.175Z,23.74
2018-09-15T13:42:55.580Z,24.00
2018-09-15T13:45:24.984Z,23.90
2018-09-15T13:47:54.381Z,23.37
2018-09-15T13:50:23.784Z,23.28
2018-09-15T13:52:53.086Z,23.21
2018-09-15T13:55:22.484Z,22.96
2018-09-15T13:57:51.887Z,22.89
2018-09-15T14:00:21.391Z,23.00
2018-09-15T14:02:50.896Z,22.59
2018-09-15T14:05:20.299Z,23.04
2018-09-15T14:07:49.698Z,22.89
2018-09-15T14:10:19.387Z,22.57
2018-09-15T14:12:48.505Z,22.53
2018-09-15T14:15:17.904Z,22.43
2018-09-15T14:17:47.305Z,22.46
2018-09-15T14:20:16.709Z,22.28
2018-09-15T14:22:46.212Z,22.17
2018-09-15T14:25:15.615Z,22.31
2018-09-15T14:27:45.119Z,22.45
2018-09-15T14:30:14.415Z,22.51
2018-09-15T14:32:44.026Z,22.66
2018-09-15T14:35:13.427Z,22.85
2018-09-15T14:37:42.932Z,22.62
2018-09-15T14:40:12.421Z,22.50
2018-09-15T14:42:41.734Z,22.88
2018-09-15T14:45:11.034Z,22.87
2018-09-15T14:47:40.438Z,22.97
2018-09-15T14:50:09.852Z,22.91
2018-09-15T14:52:39.267Z,22.68
2018-09-15T14:55:08.699Z,22.44
2018-09-15T14:57:38.151Z,22.47
2018-09-15T15:00:08.559Z,22.49
2018-09-15T15:02:37.971Z,22.32
2018-09-15T15:05:07.377Z,22.45
2018-09-15T15:07:36.934Z,22.12
2018-09-15T15:10:06.387Z,22.37
2018-09-15T15:12:35.691Z,22.29
2018-09-15T15:15:05.090Z,22.32
2018-09-15T15:17:34.490Z,22.51
2018-09-15T15:20:03.888Z,22.45
2018-09-15T15:22:33.190Z,22.14
2018-09-15T15:25:03.988Z,21.68
2018-09-15T15:27:33.326Z,21.98
2018-09-15T15:30:02.945Z,22.28
2018-09-15T15:32:32.375Z,22.17
2018-09-15T15:35:01.840Z,22.12
2018-09-15T15:37:31.454Z,22.12
2018-09-15T15:40:00.848Z,22.20
2018-09-15T15:42:30.147Z,22.13
2018-09-15T15:44:59.443Z,22.28
2018-09-15T15:47:28.745Z,22.12
2018-09-15T15:49:58.148Z,22.14
2018-09-15T15:52:28.102Z,22.25
2018-09-15T15:54:57.655Z,22.02
2018-09-15T15:57:27.255Z,22.11
2018-09-15T15:59:56.883Z,22.36
2018-09-15T16:02:26.389Z,22.44
2018-09-15T16:04:55.892Z,22.66
2018-09-15T16:07:25.295Z,22.74
2018-09-15T16:09:54.724Z,22.13
2018-09-15T16:12:24.122Z,22.23
2018-09-15T16:14:53.537Z,22.44
2018-09-15T16:17:22.800Z,22.42
2018-09-15T16:19:52.304Z,22.33
2018-09-15T16:22:21.707Z,22.49
2018-09-15T16:24:51.109Z,22.34
2018-09-15T16:27:20.520Z,22.12
2018-09-15T16:29:49.913Z,22.25
2018-09-15T16:32:19.417Z,22.27
2018-09-15T16:34:48.915Z,22.14
2018-09-15T16:37:18.322Z,22.30
2018-09-15T16:39:47.827Z,21.87
2018-09-15T16:42:17.229Z,21.81
2018-09-15T16:44:46.522Z,22.00
2018-09-15T16:47:16.036Z,21.88
2018-09-15T16:49:45.435Z,21.94
2018-09-15T16:52:14.939Z,21.82
2018-09-15T16:54:44.444Z,21.85
2018-09-15T16:57:13.846Z,21.75
2018-09-15T16:59:43.418Z,21.70
2018-09-15T17:02:12.854Z,21.69
2018-09-15T17:04:42.276Z,21.62
2018-09-15T17:07:11.716Z,21.56
2018-09-15T17:09:41.166Z,21.57
2018-09-15T17:12:10.566Z,21.34
2018-09-15T17:14:40.071Z,21.27
2018-09-15T17:17:09.474Z,21.20
2018-09-15T17:19:38.877Z,21.21
2018-09-15T17:22:08.277Z,21.20
2018-09-15T17:24:37.781Z,21.13
2018-09-15T17:27:07.570Z,21.08
2018-09-15T17:29:36.894Z,21.02
2018-09-15T17:32:06.496Z,20.99
2018-09-15T17:34:35.910Z,20.89
2018-09-15T17:37:05.336Z,20.74
2018-09-15T17:39:34.806Z,20.69
2018-09-15T17:42:04.312Z,20.62
2018-09-15T17:44:33.815Z,20.49
2018-09-15T17:47:03.320Z,20.43
2018-09-15T17:49:32.824Z,20.40
2018-09-15T17:52:02.313Z,20.41
2018-09-15T17:54:31.761Z,20.39
2018-09-15T17:57:01.131Z,20.34
2018-09-15T17:59:30.535Z,20.23
2018-09-15T18:02:00.007Z,20.12
2018-09-15T18:04:29.439Z,20.11
2018-09-15T18:06:58.841Z,19.96
2018-09-15T18:09:28.257Z,19.90
2018-09-15T18:11:57.868Z,19.77
2018-09-15T18:14:27.466Z,19.76
2018-09-15T18:16:56.962Z,19.57
2018-09-15T18:19:26.360Z,19.61
2018-09-15T18:21:55.879Z,19.51
2018-09-15T18:24:25.397Z,19.57
2018-09-15T18:26:54.774Z,19.56
2018-09-15T18:29:24.181Z,19.51
2018-09-15T18:31:53.681Z,19.45
2018-09-15T18:34:23.081Z,19.41
2018-09-15T18:36:53.129Z,19.26
2018-09-15T18:39:22.395Z,19.11
2018-09-15T18:41:52.112Z,19.00
2018-09-15T18:44:21.613Z,18.90
2018-09-15T18:46:51.015Z,18.88
2018-09-15T18:49:20.507Z,18.69
2018-09-15T18:51:50.024Z,18.70
2018-09-15T18:54:19.427Z,18.61
2018-09-15T18:56:48.929Z,18.52
2018-09-15T18:59:18.332Z,18.52
2018-09-15T19:01:47.818Z,18.49
2018-09-15T19:04:17.241Z,18.42
2018-09-15T19:06:46.747Z,18.39
2018-09-15T19:09:16.140Z,18.22
2018-09-15T19:11:45.649Z,17.99
2018-09-15T19:14:14.985Z,17.95
2018-09-15T19:16:44.352Z,17.93
2018-09-15T19:19:13.753Z,17.93
2018-09-15T19:21:43.154Z,17.88
2018-09-15T19:24:12.559Z,17.83
2018-09-15T19:26:42.165Z,17.78
2018-09-15T19:29:11.461Z,17.75
2018-09-15T19:31:40.863Z,17.74
2018-09-15T19:34:10.265Z,17.67
2018-09-15T19:36:39.769Z,17.59
2018-09-15T19:39:11.877Z,17.56
2018-09-15T19:41:41.339Z,17.50
2018-09-15T19:44:10.843Z,17.45
2018-09-15T19:46:40.554Z,17.46
2018-09-15T19:49:10.671Z,17.49
2018-09-15T19:51:40.176Z,17.48
2018-09-15T19:54:09.681Z,17.48
2018-09-15T19:56:39.185Z,17.48
2018-09-15T19:59:08.612Z,17.36
2018-09-15T20:01:38.093Z,17.27
2018-09-15T20:04:07.612Z,17.31
2018-09-15T20:06:36.996Z,17.30
2018-09-15T20:09:08.866Z,17.24
2018-09-15T20:11:38.346Z,17.03
2018-09-15T20:14:08.462Z,17.08
2018-09-15T20:16:36.579Z,17.12
2018-09-15T20:19:05.065Z,16.99
2018-09-15T20:21:33.161Z,16.76
2018-09-15T20:24:02.605Z,16.61
2018-09-15T20:26:32.217Z,16.50
2018-09-15T20:29:01.784Z,16.44
2018-09-15T20:31:31.214Z,16.47
2018-09-15T20:34:00.643Z,16.31
2018-09-15T20:36:30.129Z,16.24
2018-09-15T20:38:59.450Z,16.31
2018-09-15T20:41:28.932Z,16.31
2018-09-15T20:43:58.437Z,16.32
2018-09-15T20:46:27.941Z,16.22
2018-09-15T20:48:57.488Z,15.78
2018-09-15T20:51:26.955Z,15.90
2018-09-15T20:53:56.353Z,15.91
2018-09-15T20:56:25.859Z,16.01
2018-09-15T20:58:55.155Z,16.07
2018-09-15T21:01:24.660Z,16.04
2018-09-15T21:03:54.062Z,15.97
2018-09-15T21:06:23.469Z,16.08
2018-09-15T21:08:52.971Z,15.95
2018-09-15T21:11:22.370Z,15.84
2018-09-15T21:13:54.741Z,15.86
2018-09-15T21:16:24.245Z,15.87
2018-09-15T21:18:53.749Z,15.78
2018-09-15T21:21:23.147Z,15.59
2018-09-15T21:23:52.343Z,15.52
2018-09-15T21:26:21.853Z,15.57
2018-09-15T21:28:51.357Z,15.55
2018-09-15T21:31:20.865Z,15.58
2018-09-15T21:33:50.263Z,15.63
2018-09-15T21:36:19.768Z,15.63
2018-09-15T21:38:49.125Z,15.65
2018-09-15T21:41:18.495Z,15.52
2018-09-15T21:43:47.870Z,15.50
2018-09-15T21:46:17.232Z,15.51
2018-09-15T21:48:46.571Z,15.51
2018-09-15T21:51:15.973Z,15.38
2018-09-15T21:53:45.462Z,15.36
2018-09-15T21:56:14.778Z,15.39
2018-09-15T21:58:44.090Z,15.37
2018-09-15T22:01:13.481Z,15.31
2018-09-15T22:03:48.968Z,15.28
2018-09-15T22:06:18.376Z,15.26
2018-09-15T22:08:47.726Z,15.24
2018-09-15T22:11:17.128Z,15.22
2018-09-15T22:13:46.531Z,15.27
2018-09-15T22:16:15.932Z,15.27
2018-09-15T22:18:45.188Z,15.32
2018-09-15T22:21:14.531Z,15.32
2018-09-15T22:23:43.830Z,15.22
2018-09-15T22:26:13.232Z,15.19
2018-09-15T22:28:42.845Z,15.23
2018-09-15T22:31:12.242Z,15.18
2018-09-15T22:33:41.746Z,15.09
2018-09-15T22:36:11.207Z,15.03
2018-09-15T22:38:40.549Z,15.05
2018-09-15T22:41:09.950Z,15.05
2018-09-15T22:43:39.247Z,15.06
2018-09-15T22:46:08.756Z,15.14
2018-09-15T22:48:38.051Z,15.19
2018-09-15T22:51:07.823Z,15.19
2018-09-15T22:53:37.167Z,15.08
2018-09-15T22:56:06.667Z,15.02
2018-09-15T22:58:36.072Z,14.89
2018-09-15T23:01:05.375Z,15.01
2018-09-15T23:03:34.851Z,14.91
2018-09-15T23:06:04.279Z,14.79
2018-09-15T23:08:33.782Z,14.69
2018-09-15T23:11:03.116Z,14.65
2018-09-15T23:13:32.382Z,14.61
2018-09-15T23:16:01.785Z,14.50
2018-09-15T23:18:31.290Z,14.45
2018-09-15T23:21:00.891Z,14.41
2018-09-15T23:23:30.298Z,14.43
2018-09-15T23:25:59.802Z,14.50
2018-09-15T23:28:29.203Z,14.49
2018-09-15T23:30:58.606Z,14.42
2018-09-15T23:33:28.111Z,14.37
2018-09-15T23:35:57.717Z,14.26
2018-09-15T23:38:27.119Z,14.23
2018-09-15T23:40:56.715Z,14.30
2018-09-15T23:43:26.024Z,14.28
2018-09-15T23:45:55.441Z,14.20
2018-09-15T23:48:24.930Z,14.18
2018-09-15T23:50:54.334Z,14.21
2018-09-15T23:53:23.755Z,14.20
2018-09-15T23:55:53.135Z,14.10
2018-09-15T23:58:22.434Z,14.10
